createdAt,value
2022-10-09T00:01:15.012Z,75.98
2022-10-09T00:06:21.703Z,76.08
2022-10-09T00:11:27.476Z,75.56
2022-10-09T00:16:30.735Z,77.34
2022-10-09T00:21:34.657Z,75.72
2022-10-09T00:26:37.515Z,76.66
2022-10-09T00:31:40.320Z,76.17
2022-10-09T00:36:43.323Z,75.73
2022-10-09T00:41:46.126Z,76.02
2022-10-09T00:46:51.592Z,76.20
2022-10-09T00:51:56.952Z,76.09
2022-10-09T00:57:00.452Z,76.19
2022-10-09T01:02:03.418Z,76.48
2022-10-09T01:07:35.570Z,76.22
2022-10-09T01:12:54.724Z,77.13
2022-10-09T01:18:04.822Z,76.84
2022-10-09T01:23:53.092Z,76.95
2022-10-09T01:29:00.035Z,76.79
2022-10-09T01:34:04.337Z,76.50
2022-10-09T01:39:09.587Z,76.71
2022-10-09T01:44:32.661Z,75.94
2022-10-09T01:49:50.009Z,75.80
2022-10-09T01:55:10.930Z,76.27
2022-10-09T02:00:14.942Z,76.91
2022-10-09T02:05:24.930Z,77.17
2022-10-09T02:10:28.046Z,77.28
2022-10-09T02:15:45.957Z,77.69
2022-10-09T02:20:52.182Z,77.30
2022-10-09T02:25:55.395Z,76.60
2022-10-09T02:31:11.387Z,77.64
2022-10-09T02:36:14.916Z,79.14
2022-10-09T02:41:17.821Z,77.87
2022-10-09T02:46:21.443Z,76.83
2022-10-09T02:51:25.328Z,77.36
2022-10-09T02:56:29.097Z,77.13
2022-10-09T03:01:32.073Z,77.11
2022-10-09T03:06:35.956Z,77.53
2022-10-09T03:11:39.035Z,78.32
2022-10-09T03:16:41.938Z,78.06
2022-10-09T03:21:44.848Z,78.33
2022-10-09T03:26:47.644Z,78.30
2022-10-09T03:31:53.194Z,77.20
2022-10-09T03:36:56.529Z,77.72
2022-10-09T03:41:59.430Z,79.46
2022-10-09T03:47:02.286Z,78.16
2022-10-09T03:52:05.236Z,79.35
2022-10-09T03:57:08.140Z,78.49
2022-10-09T04:02:10.981Z,77.63
2022-10-09T04:07:13.948Z,78.05
2022-10-09T04:12:16.750Z,78.96
2022-10-09T04:17:19.551Z,79.30
2022-10-09T04:22:22.352Z,80.16
2022-10-09T04:27:25.257Z,79.81
2022-10-09T04:32:28.060Z,79.04
2022-10-09T04:37:30.963Z,78.51
2022-10-09T04:42:33.763Z,78.93
2022-10-09T04:47:36.876Z,78.64
2022-10-09T04:52:39.681Z,79.66
2022-10-09T04:57:42.580Z,78.84
2022-10-09T05:02:45.535Z,78.69
2022-10-09T05:07:48.650Z,78.70
2022-10-09T05:12:51.603Z,79.20
2022-10-09T05:17:54.720Z,79.78
2022-10-09T05:22:57.612Z,79.14
2022-10-09T05:28:00.516Z,79.28
2022-10-09T05:33:03.420Z,78.97
2022-10-09T05:38:06.429Z,78.67
2022-10-09T05:43:09.329Z,78.42
2022-10-09T05:48:12.234Z,77.95
2022-10-09T05:53:15.181Z,75.13
2022-10-09T05:58:18.039Z,70.82
2022-10-09T06:03:20.945Z,70.17
2022-10-09T06:08:23.950Z,70.81
2022-10-09T06:13:26.857Z,72.10
2022-10-09T06:18:30.483Z,72.97
2022-10-09T06:23:34.030Z,73.03
2022-10-09T06:28:36.931Z,73.56
2022-10-09T06:33:41.849Z,73.54
2022-10-09T06:38:45.180Z,73.67
2022-10-09T06:44:16.065Z,73.12
2022-10-09T06:49:19.643Z,72.83
2022-10-09T06:54:22.754Z,72.22
2022-10-09T06:59:25.554Z,71.74
2022-10-09T07:04:28.466Z,71.88
2022-10-09T07:09:31.568Z,71.79
2022-10-09T07:14:34.475Z,72.13
2022-10-09T07:19:37.477Z,72.16
2022-10-09T07:24:40.295Z,70.92
2022-10-09T07:29:43.387Z,69.09
2022-10-09T07:34:46.189Z,65.44
2022-10-09T07:39:48.992Z,64.12
2022-10-09T07:44:51.802Z,63.32
2022-10-09T07:49:54.699Z,61.44
2022-10-09T07:54:57.702Z,61.30
2022-10-09T08:00:00.606Z,62.20
2022-10-09T08:05:03.690Z,62.47
2022-10-09T08:10:07.224Z,60.14
2022-10-09T08:15:10.245Z,62.18
2022-10-09T08:20:13.144Z,62.51
2022-10-09T08:25:16.148Z,61.90
2022-10-09T08:30:19.305Z,62.38
2022-10-09T08:35:22.163Z,62.25
2022-10-09T08:40:36.231Z,62.36
2022-10-09T08:45:40.667Z,62.31
2022-10-09T08:50:51.686Z,61.83
2022-10-09T08:55:57.644Z,61.68
2022-10-09T09:01:12.783Z,61.12
2022-10-09T09:06:30.990Z,60.99
2022-10-09T09:12:00.520Z,60.20
2022-10-09T09:17:24.622Z,60.16
2022-10-09T09:22:28.116Z,59.86
2022-10-09T09:27:34.421Z,59.62
2022-10-09T09:32:51.119Z,59.90
2022-10-09T09:37:54.567Z,60.48
2022-10-09T09:43:04.834Z,61.06
2022-10-09T09:48:23.415Z,61.65
2022-10-09T09:53:32.157Z,62.06
2022-10-09T09:58:45.265Z,62.45
2022-10-09T10:03:54.350Z,61.27
2022-10-09T10:09:05.732Z,60.23
2022-10-09T10:14:13.777Z,59.30
2022-10-09T10:19:29.991Z,60.90
2022-10-09T10:24:41.834Z,62.58
2022-10-09T10:29:46.954Z,62.34
2022-10-09T10:34:54.306Z,62.04
2022-10-09T10:40:13.716Z,60.42
2022-10-09T10:45:23.424Z,59.32
2022-10-09T10:50:36.467Z,60.90
2022-10-09T10:55:59.270Z,61.88
2022-10-09T11:01:27.586Z,60.84
2022-10-09T11:06:44.731Z,59.52
2022-10-09T11:12:24.876Z,58.53
2022-10-09T11:17:54.638Z,59.24
2022-10-09T11:23:12.949Z,60.11
2022-10-09T11:28:23.086Z,61.13
2022-10-09T11:33:37.089Z,61.15
2022-10-09T11:38:46.122Z,60.79
2022-10-09T11:43:58.153Z,60.31
2022-10-09T11:49:19.901Z,60.30
2022-10-09T11:54:24.708Z,60.05
2022-10-09T11:59:36.665Z,59.66
2022-10-09T12:04:55.780Z,59.62
2022-10-09T12:10:07.466Z,59.99
2022-10-09T12:15:24.093Z,60.72
2022-10-09T12:20:28.363Z,61.41
2022-10-09T12:25:40.684Z,61.78
2022-10-09T12:30:48.869Z,62.12
2022-10-09T12:36:06.151Z,62.58
2022-10-09T12:41:23.353Z,60.53
2022-10-09T12:46:33.219Z,58.97
2022-10-09T12:51:38.990Z,58.69
2022-10-09T12:56:42.652Z,58.33
2022-10-09T13:01:53.871Z,58.66
2022-10-09T13:07:05.941Z,58.61
2022-10-09T13:12:23.787Z,58.17
2022-10-09T13:17:38.062Z,57.57
2022-10-09T13:22:41.025Z,57.21
2022-10-09T13:27:43.967Z,57.31
2022-10-09T13:32:50.070Z,57.66
2022-10-09T13:37:53.100Z,57.38
2022-10-09T13:43:01.493Z,57.33
2022-10-09T13:48:08.691Z,57.26
2022-10-09T13:53:12.044Z,57.47
2022-10-09T13:58:14.915Z,57.70
2022-10-09T14:03:18.321Z,57.96
2022-10-09T14:08:21.944Z,58.02
2022-10-09T14:13:24.754Z,58.10
2022-10-09T14:18:27.650Z,58.28
2022-10-09T14:23:30.454Z,58.42
2022-10-09T14:28:34.072Z,58.63
2022-10-09T14:33:49.266Z,58.69
2022-10-09T14:38:53.499Z,59.12
2022-10-09T14:43:59.581Z,59.52
2022-10-09T14:49:07.544Z,60.15
2022-10-09T14:54:12.352Z,60.41
2022-10-09T14:59:15.149Z,61.15
2022-10-09T15:04:18.020Z,61.49
2022-10-09T15:09:20.958Z,62.08
2022-10-09T15:14:23.972Z,63.44
2022-10-09T15:19:26.870Z,62.81
2022-10-09T15:24:30.388Z,62.25
2022-10-09T15:29:33.322Z,61.56
2022-10-09T15:34:40.626Z,61.52
2022-10-09T15:39:44.121Z,61.57
2022-10-09T15:44:47.019Z,61.37
2022-10-09T15:49:53.322Z,61.17
2022-10-09T15:54:56.515Z,61.24
2022-10-09T15:59:59.317Z,61.30
2022-10-09T16:05:02.322Z,61.73
2022-10-09T16:10:05.795Z,62.16
2022-10-09T16:15:09.390Z,62.68
2022-10-09T16:20:12.265Z,63.18
2022-10-09T16:25:15.271Z,63.67
2022-10-09T16:30:18.174Z,64.28
2022-10-09T16:35:22.601Z,64.91
2022-10-09T16:40:49.970Z,65.44
2022-10-09T16:45:48.394Z,65.86
2022-10-09T16:50:51.195Z,66.26
2022-10-09T16:55:54.095Z,66.54
2022-10-09T17:01:03.923Z,66.79
2022-10-09T17:06:13.938Z,67.06
2022-10-09T17:11:17.559Z,67.31
2022-10-09T17:16:22.383Z,67.63
2022-10-09T17:21:28.141Z,68.26
2022-10-09T17:26:35.087Z,68.70
2022-10-09T17:31:37.983Z,69.01
2022-10-09T17:36:42.424Z,69.42
2022-10-09T17:41:47.218Z,69.64
2022-10-09T17:46:50.400Z,66.69
2022-10-09T17:51:54.721Z,66.59
2022-10-09T17:57:00.401Z,67.21
2022-10-09T18:02:03.680Z,69.99
2022-10-09T18:07:06.910Z,72.28
2022-10-09T18:12:10.023Z,75.01
2022-10-09T18:17:13.743Z,75.58
2022-10-09T18:22:16.848Z,75.85
2022-10-09T18:27:20.709Z,76.71
2022-10-09T18:32:23.470Z,76.94
2022-10-09T18:37:26.793Z,76.87
2022-10-09T18:42:29.796Z,76.78
2022-10-09T18:47:35.205Z,76.90
2022-10-09T18:52:40.007Z,71.58
2022-10-09T18:57:43.384Z,74.96
2022-10-09T19:02:46.343Z,77.87
2022-10-09T19:07:49.482Z,79.00
2022-10-09T19:12:54.492Z,78.75
2022-10-09T19:17:57.297Z,78.79
2022-10-09T19:23:00.198Z,78.86
2022-10-09T19:28:03.121Z,78.90
2022-10-09T19:33:06.109Z,78.85
2022-10-09T19:38:09.120Z,78.95
2022-10-09T19:43:13.375Z,79.01
2022-10-09T19:48:17.746Z,79.15
2022-10-09T19:53:20.696Z,79.37
2022-10-09T19:58:23.495Z,79.62
2022-10-09T20:03:26.319Z,79.75
2022-10-09T20:08:29.305Z,80.01
2022-10-09T20:13:37.792Z,80.04
2022-10-09T20:18:42.407Z,79.74
2022-10-09T20:23:45.490Z,79.85
2022-10-09T20:28:49.004Z,80.30
2022-10-09T20:33:53.142Z,80.58
2022-10-09T20:38:58.360Z,79.94
2022-10-09T20:44:02.265Z,79.63
2022-10-09T20:49:07.506Z,79.96
2022-10-09T20:54:16.360Z,80.86
2022-10-09T20:59:19.336Z,80.93
2022-10-09T21:04:22.243Z,80.77
2022-10-09T21:09:27.530Z,81.21
2022-10-09T21:14:33.987Z,80.41
2022-10-09T21:19:36.790Z,80.04
2022-10-09T21:24:39.702Z,80.66
2022-10-09T21:29:42.732Z,79.47
2022-10-09T21:34:46.013Z,80.65
2022-10-09T21:39:48.817Z,80.57
2022-10-09T21:44:51.721Z,80.74
2022-10-09T21:49:54.622Z,80.47
2022-10-09T21:54:57.528Z,80.43
2022-10-09T22:00:00.641Z,81.37
2022-10-09T22:05:04.161Z,80.86
2022-10-09T22:10:07.674Z,80.66
2022-10-09T22:15:10.924Z,79.06
2022-10-09T22:20:13.788Z,80.29
2022-10-09T22:25:17.107Z,80.57
2022-10-09T22:30:20.110Z,80.45
2022-10-09T22:35:23.468Z,81.04
2022-10-09T22:40:26.325Z,81.12
2022-10-09T22:45:29.130Z,81.23
2022-10-09T22:50:31.927Z,81.19
2022-10-09T22:55:34.936Z,81.08
2022-10-09T23:00:38.314Z,81.04
2022-10-09T23:05:41.150Z,81.24
2022-10-09T23:10:43.994Z,80.53
2022-10-09T23:15:47.061Z,80.59
2022-10-09T23:20:49.868Z,81.20
2022-10-09T23:25:52.771Z,81.49
2022-10-09T23:31:11.563Z,81.73
2022-10-09T23:36:17.316Z,81.72
2022-10-09T23:41:22.680Z,81.12
2022-10-09T23:46:33.063Z,79.99
2022-10-09T23:51:35.963Z,80.52
2022-10-09T23:56:38.867Z,80.62
